PHGAS EBBL-EBOS
Flight info
| Callsign | PHGAS |
|---|---|
| Flight time | 1h 3m |
| Altitude | 10000 |
| Route | DCT |
| Aircraft | DA42/L-SBDGRY/S |
Departure
| Time | 2026-04-27 18:29 |
|---|---|
| Airport | Kleine Brogel Air Base (EBBL) |
Arrival
| Time | 2026-04-27 19:33 |
|---|---|
| Airport | Ostend-Bruges International Airport (EBOS) |
| Time | Latitude | Longitude | Altitude | Speed | Heading |
|---|---|---|---|---|---|
| 2026-04-27 18:20 | 51.17368 | 5.47166 | 180 ft | 0 kts | 98° |
| 2026-04-27 18:23 | 51.17357 | 5.47231 | 179 ft | 9 kts | 82° |
| 2026-04-27 18:23 | 51.17411 | 5.47300 | 178 ft | 0 kts | 30° |
| 2026-04-27 18:24 | 51.17443 | 5.47348 | 177 ft | 14 kts | 31° |
| 2026-04-27 18:24 | 51.17407 | 5.47294 | 178 ft | 15 kts | 207° |
| 2026-04-27 18:24 | 51.17300 | 5.47196 | 179 ft | 20 kts | 211° |
| 2026-04-27 18:24 | 51.17178 | 5.47059 | 181 ft | 23 kts | 216° |
| 2026-04-27 18:25 | 51.17120 | 5.46990 | 182 ft | 0 kts | 216° |
| 2026-04-27 18:25 | 51.17076 | 5.46911 | 182 ft | 27 kts | 231° |
| 2026-04-27 18:25 | 51.17005 | 5.46583 | 184 ft | 27 kts | 256° |
| 2026-04-27 18:25 | 51.16972 | 5.46431 | 193 ft | 14 kts | 229° |
| 2026-04-27 18:26 | 51.16862 | 5.46361 | 191 ft | 20 kts | 191° |
| 2026-04-27 18:26 | 51.16712 | 5.46299 | 195 ft | 27 kts | 204° |
| 2026-04-27 18:26 | 51.16610 | 5.46124 | 190 ft | 23 kts | 205° |
| 2026-04-27 18:26 | 51.16513 | 5.46160 | 191 ft | 4 kts | 144° |
| 2026-04-27 18:27 | 51.16513 | 5.46161 | 191 ft | 0 kts | 133° |
| 2026-04-27 18:27 | 51.16452 | 5.46245 | 190 ft | 15 kts | 124° |
| 2026-04-27 18:28 | 51.16468 | 5.46285 | 190 ft | 0 kts | 51° |
| 2026-04-27 18:28 | 51.16572 | 5.46484 | 187 ft | 59 kts | 47° |
| 2026-04-27 18:28 | 51.16928 | 5.47164 | 296 ft | 87 kts | 50° |
| 2026-04-27 18:29 | 51.17332 | 5.47892 | 504 ft | 88 kts | 49° |
| 2026-04-27 18:29 | 51.17776 | 5.48416 | 807 ft | 85 kts | 4° |
| 2026-04-27 18:29 | 51.18135 | 5.47617 | 962 ft | 102 kts | 278° |
| 2026-04-27 18:29 | 51.18217 | 5.46471 | 1139 ft | 108 kts | 285° |
| 2026-04-27 18:30 | 51.18180 | 5.45294 | 1401 ft | 108 kts | 259° |
| 2026-04-27 18:30 | 51.18262 | 5.44114 | 1567 ft | 106 kts | 290° |
| 2026-04-27 18:30 | 51.18504 | 5.43035 | 1828 ft | 102 kts | 297° |
| 2026-04-27 18:30 | 51.18758 | 5.41984 | 2053 ft | 104 kts | 297° |
| 2026-04-27 18:31 | 51.19074 | 5.40921 | 2259 ft | 101 kts | 315° |
| 2026-04-27 18:31 | 51.19438 | 5.40228 | 2623 ft | 86 kts | 318° |
| 2026-04-27 18:31 | 51.19842 | 5.39507 | 2908 ft | 84 kts | 304° |
| 2026-04-27 18:31 | 51.19890 | 5.38558 | 3216 ft | 92 kts | 275° |
| 2026-04-27 18:32 | 51.19743 | 5.37618 | 3574 ft | 86 kts | 244° |
| 2026-04-27 18:32 | 51.19531 | 5.36767 | 3862 ft | 83 kts | 257° |
| 2026-04-27 18:32 | 51.19347 | 5.35725 | 3967 ft | 106 kts | 256° |
| 2026-04-27 18:32 | 51.19155 | 5.34620 | 4235 ft | 104 kts | 256° |
| 2026-04-27 18:33 | 51.18923 | 5.33589 | 4601 ft | 92 kts | 246° |
| 2026-04-27 18:33 | 51.18725 | 5.32651 | 4932 ft | 88 kts | 256° |
| 2026-04-27 18:33 | 51.18454 | 5.31802 | 5186 ft | 92 kts | 232° |
| 2026-04-27 18:33 | 51.18001 | 5.30966 | 5324 ft | 101 kts | 248° |
| 2026-04-27 18:34 | 51.17919 | 5.29885 | 5548 ft | 103 kts | 262° |
| 2026-04-27 18:34 | 51.17490 | 5.28947 | 5582 ft | 123 kts | 212° |
| 2026-04-27 18:34 | 51.16787 | 5.28405 | 5915 ft | 104 kts | 187° |
| 2026-04-27 18:34 | 51.16015 | 5.28347 | 5845 ft | 123 kts | 214° |
| 2026-04-27 18:35 | 51.15529 | 5.27500 | 6281 ft | 100 kts | 248° |
| 2026-04-27 18:35 | 51.15787 | 5.26443 | 6371 ft | 95 kts | 324° |
| 2026-04-27 18:35 | 51.16375 | 5.26078 | 6600 ft | 102 kts | 356° |
| 2026-04-27 18:35 | 51.17033 | 5.25932 | 6883 ft | 96 kts | 329° |
| 2026-04-27 18:36 | 51.17638 | 5.25198 | 6835 ft | 118 kts | 319° |
| 2026-04-27 18:36 | 51.18234 | 5.24336 | 7032 ft | 109 kts | 315° |
| 2026-04-27 18:36 | 51.18717 | 5.23555 | 7418 ft | 92 kts | 315° |
| 2026-04-27 18:36 | 51.19046 | 5.22771 | 7697 ft | 90 kts | 273° |
| 2026-04-27 18:37 | 51.18967 | 5.21758 | 7943 ft | 91 kts | 260° |
| 2026-04-27 18:37 | 51.18955 | 5.20809 | 8242 ft | 87 kts | 274° |
| 2026-04-27 18:37 | 51.19019 | 5.19768 | 8374 ft | 101 kts | 277° |
| 2026-04-27 18:37 | 51.19098 | 5.18676 | 8621 ft | 99 kts | 277° |
| 2026-04-27 18:38 | 51.19183 | 5.17486 | 8720 ft | 114 kts | 277° |
| 2026-04-27 18:38 | 51.19277 | 5.16242 | 8955 ft | 117 kts | 277° |
| 2026-04-27 18:38 | 51.19382 | 5.14881 | 9031 ft | 127 kts | 277° |
| 2026-04-27 18:38 | 51.19493 | 5.13469 | 9132 ft | 132 kts | 277° |
| 2026-04-27 18:39 | 51.19606 | 5.11999 | 9238 ft | 133 kts | 277° |
| 2026-04-27 18:39 | 51.19718 | 5.10557 | 9418 ft | 130 kts | 277° |
| 2026-04-27 18:39 | 51.19830 | 5.09148 | 9635 ft | 126 kts | 277° |
| 2026-04-27 18:39 | 51.19940 | 5.07783 | 9862 ft | 123 kts | 277° |
| 2026-04-27 18:40 | 51.20050 | 5.06439 | 10075 ft | 122 kts | 277° |
| 2026-04-27 18:40 | 51.20167 | 5.05031 | 10087 ft | 134 kts | 277° |
| 2026-04-27 18:40 | 51.20292 | 5.03531 | 10101 ft | 139 kts | 277° |
| 2026-04-27 18:40 | 51.20420 | 5.02017 | 10191 ft | 136 kts | 277° |
| 2026-04-27 18:41 | 51.20543 | 5.00557 | 10290 ft | 135 kts | 277° |
| 2026-04-27 18:41 | 51.20669 | 4.99053 | 10325 ft | 137 kts | 277° |
| 2026-04-27 18:41 | 51.20796 | 4.97552 | 10427 ft | 135 kts | 277° |
| 2026-04-27 18:41 | 51.20863 | 4.96114 | 10643 ft | 125 kts | 267° |
| 2026-04-27 18:42 | 51.20822 | 4.94731 | 10790 ft | 126 kts | 267° |
| 2026-04-27 18:42 | 51.20792 | 4.93805 | 10882 ft | 127 kts | 267° |
| 2026-04-27 18:42 | 51.20733 | 4.91930 | 11091 ft | 126 kts | 267° |
| 2026-04-27 18:42 | 51.20689 | 4.90508 | 11147 ft | 132 kts | 267° |
| 2026-04-27 18:43 | 51.20643 | 4.89019 | 11181 ft | 135 kts | 267° |
| 2026-04-27 18:43 | 51.20589 | 4.87515 | 11214 ft | 138 kts | 267° |
| 2026-04-27 18:43 | 51.20541 | 4.85997 | 11280 ft | 136 kts | 267° |
| 2026-04-27 18:43 | 51.20494 | 4.84515 | 11412 ft | 131 kts | 267° |
| 2026-04-27 18:44 | 51.20450 | 4.83091 | 11579 ft | 127 kts | 267° |
| 2026-04-27 18:44 | 51.20408 | 4.81694 | 11626 ft | 132 kts | 267° |
| 2026-04-27 18:44 | 51.20366 | 4.80150 | 11454 ft | 138 kts | 267° |
| 2026-04-27 18:44 | 51.20323 | 4.78675 | 11438 ft | 129 kts | 267° |
| 2026-04-27 18:45 | 51.20280 | 4.77280 | 11455 ft | 123 kts | 267° |
| 2026-04-27 18:45 | 51.20241 | 4.75937 | 11465 ft | 120 kts | 267° |
| 2026-04-27 18:45 | 51.20201 | 4.74605 | 11461 ft | 121 kts | 267° |
| 2026-04-27 18:45 | 51.20157 | 4.73255 | 11425 ft | 122 kts | 267° |
| 2026-04-27 18:46 | 51.20109 | 4.71892 | 11382 ft | 124 kts | 267° |
| 2026-04-27 18:46 | 51.20062 | 4.70538 | 11342 ft | 124 kts | 267° |
| 2026-04-27 18:46 | 51.20013 | 4.69167 | 11310 ft | 124 kts | 267° |
| 2026-04-27 18:46 | 51.19964 | 4.67797 | 11293 ft | 124 kts | 267° |
| 2026-04-27 18:47 | 51.19915 | 4.66430 | 11259 ft | 124 kts | 267° |
| 2026-04-27 18:47 | 51.19866 | 4.65053 | 11223 ft | 124 kts | 267° |
| 2026-04-27 18:47 | 51.19816 | 4.63678 | 11185 ft | 124 kts | 267° |
| 2026-04-27 18:47 | 51.19765 | 4.62301 | 11150 ft | 124 kts | 267° |
| 2026-04-27 18:48 | 51.19714 | 4.60924 | 11113 ft | 124 kts | 267° |
| 2026-04-27 18:48 | 51.19662 | 4.59557 | 11082 ft | 123 kts | 267° |
| 2026-04-27 18:48 | 51.19610 | 4.58198 | 11059 ft | 122 kts | 267° |
| 2026-04-27 18:48 | 51.19559 | 4.56848 | 11041 ft | 122 kts | 267° |
| 2026-04-27 18:49 | 51.19508 | 4.55501 | 11019 ft | 122 kts | 267° |
| 2026-04-27 18:49 | 51.19455 | 4.54154 | 10997 ft | 122 kts | 267° |
| 2026-04-27 18:49 | 51.19403 | 4.52813 | 10971 ft | 122 kts | 267° |
| 2026-04-27 18:49 | 51.19351 | 4.51476 | 10942 ft | 122 kts | 267° |
| 2026-04-27 18:50 | 51.19300 | 4.50118 | 10906 ft | 123 kts | 267° |
| 2026-04-27 18:50 | 51.19245 | 4.48752 | 10872 ft | 123 kts | 267° |
| 2026-04-27 18:50 | 51.19190 | 4.47392 | 10843 ft | 123 kts | 267° |
| 2026-04-27 18:50 | 51.19134 | 4.46030 | 10823 ft | 123 kts | 267° |
| 2026-04-27 18:51 | 51.19087 | 4.44915 | 10820 ft | 90 kts | 267° |
| 2026-04-27 18:51 | 51.19044 | 4.44000 | 10675 ft | 80 kts | 267° |
| 2026-04-27 18:51 | 51.19005 | 4.43148 | 10708 ft | 83 kts | 267° |
| 2026-04-27 18:51 | 51.18954 | 4.42126 | 10795 ft | 100 kts | 266° |
| 2026-04-27 18:52 | 51.18903 | 4.40971 | 10898 ft | 108 kts | 267° |
| 2026-04-27 18:52 | 51.18853 | 4.39772 | 11040 ft | 109 kts | 267° |
| 2026-04-27 18:52 | 51.18804 | 4.38583 | 11216 ft | 106 kts | 267° |
| 2026-04-27 18:53 | 51.18716 | 4.36271 | 11605 ft | 103 kts | 267° |
| 2026-04-27 18:53 | 51.18674 | 4.35137 | 11789 ft | 102 kts | 267° |
| 2026-04-27 18:53 | 51.18634 | 4.34005 | 11967 ft | 102 kts | 267° |
| 2026-04-27 18:53 | 51.18595 | 4.32867 | 12143 ft | 103 kts | 267° |
| 2026-04-27 18:54 | 51.18556 | 4.31709 | 12135 ft | 116 kts | 267° |
| 2026-04-27 18:54 | 51.18511 | 4.30342 | 11579 ft | 119 kts | 268° |
| 2026-04-27 18:54 | 51.18476 | 4.29249 | 11585 ft | 79 kts | 267° |
| 2026-04-27 18:54 | 51.18447 | 4.28440 | 11502 ft | 67 kts | 268° |
| 2026-04-27 18:55 | 51.18431 | 4.27739 | 11397 ft | 60 kts | 270° |
| 2026-04-27 18:55 | 51.18428 | 4.27101 | 11306 ft | 55 kts | 270° |
| 2026-04-27 18:55 | 51.18440 | 4.26421 | 11127 ft | 68 kts | 272° |
| 2026-04-27 18:55 | 51.18436 | 4.25610 | 10965 ft | 81 kts | 270° |
| 2026-04-27 18:56 | 51.18415 | 4.24691 | 10841 ft | 87 kts | 268° |
| 2026-04-27 18:56 | 51.18399 | 4.23743 | 10790 ft | 82 kts | 268° |
| 2026-04-27 18:56 | 51.18363 | 4.22779 | 10587 ft | 95 kts | 268° |
| 2026-04-27 18:56 | 51.18328 | 4.21695 | 10424 ft | 95 kts | 269° |
| 2026-04-27 18:57 | 51.18294 | 4.20707 | 10421 ft | 82 kts | 268° |
| 2026-04-27 18:57 | 51.18260 | 4.19809 | 10392 ft | 76 kts | 269° |
| 2026-04-27 18:57 | 51.18244 | 4.18950 | 10241 ft | 88 kts | 268° |
| 2026-04-27 18:57 | 51.18210 | 4.17851 | 9937 ft | 104 kts | 268° |
| 2026-04-27 18:58 | 51.18177 | 4.16751 | 9885 ft | 91 kts | 268° |
| 2026-04-27 18:58 | 51.18156 | 4.16105 | 9855 ft | 87 kts | 268° |
| 2026-04-27 18:58 | 51.18109 | 4.14726 | 9543 ft | 102 kts | 268° |
| 2026-04-27 18:58 | 51.18076 | 4.13679 | 9590 ft | 82 kts | 270° |
| 2026-04-27 18:59 | 51.18072 | 4.13487 | 9589 ft | 80 kts | 270° |
| 2026-04-27 18:59 | 51.18069 | 4.13388 | 9578 ft | 81 kts | 268° |
| 2026-04-27 18:59 | 51.18064 | 4.12537 | 9593 ft | 73 kts | 272° |
| 2026-04-27 18:59 | 51.18053 | 4.11768 | 9610 ft | 68 kts | 271° |
| 2026-04-27 19:00 | 51.18027 | 4.11048 | 9637 ft | 60 kts | 269° |
| 2026-04-27 19:00 | 51.17984 | 4.10242 | 9334 ft | 92 kts | 269° |
| 2026-04-27 19:00 | 51.17943 | 4.09236 | 9319 ft | 78 kts | 269° |
| 2026-04-27 19:00 | 51.17899 | 4.08326 | 9221 ft | 80 kts | 271° |
| 2026-04-27 19:01 | 51.17871 | 4.07525 | 9259 ft | 72 kts | 268° |
| 2026-04-27 19:01 | 51.17846 | 4.06662 | 9288 ft | 91 kts | 267° |
| 2026-04-27 19:01 | 51.17804 | 4.05516 | 9307 ft | 113 kts | 268° |
| 2026-04-27 19:01 | 51.17764 | 4.04231 | 9404 ft | 117 kts | 269° |
| 2026-04-27 19:02 | 51.17738 | 4.03382 | 9541 ft | 114 kts | 268° |
| 2026-04-27 19:02 | 51.17701 | 4.02151 | 9782 ft | 109 kts | 268° |
| 2026-04-27 19:02 | 51.17666 | 4.00964 | 10025 ft | 106 kts | 269° |
| 2026-04-27 19:02 | 51.17631 | 3.99789 | 10232 ft | 106 kts | 269° |
| 2026-04-27 19:03 | 51.17595 | 3.98616 | 10435 ft | 106 kts | 268° |
| 2026-04-27 19:03 | 51.17560 | 3.97447 | 10634 ft | 105 kts | 268° |
| 2026-04-27 19:03 | 51.17526 | 3.96289 | 10839 ft | 104 kts | 268° |
| 2026-04-27 19:03 | 51.17501 | 3.95527 | 10958 ft | 104 kts | 268° |
| 2026-04-27 19:04 | 51.17460 | 3.93990 | 11223 ft | 103 kts | 268° |
| 2026-04-27 19:04 | 51.17433 | 3.92849 | 11413 ft | 103 kts | 268° |
| 2026-04-27 19:04 | 51.17408 | 3.91707 | 11599 ft | 103 kts | 268° |
| 2026-04-27 19:04 | 51.17384 | 3.90561 | 11781 ft | 103 kts | 267° |
| 2026-04-27 19:05 | 51.17355 | 3.89398 | 11894 ft | 108 kts | 268° |
| 2026-04-27 19:05 | 51.17332 | 3.88191 | 12032 ft | 108 kts | 268° |
| 2026-04-27 19:05 | 51.17310 | 3.87024 | 12217 ft | 105 kts | 268° |
| 2026-04-27 19:05 | 51.17287 | 3.85853 | 12218 ft | 109 kts | 268° |
| 2026-04-27 19:06 | 51.17266 | 3.84785 | 11977 ft | 92 kts | 268° |
| 2026-04-27 19:06 | 51.17248 | 3.83770 | 11621 ft | 93 kts | 268° |
| 2026-04-27 19:06 | 51.17227 | 3.82702 | 11191 ft | 99 kts | 269° |
| 2026-04-27 19:06 | 51.17211 | 3.81775 | 11143 ft | 76 kts | 268° |
| 2026-04-27 19:07 | 51.17188 | 3.80910 | 10855 ft | 82 kts | 269° |
| 2026-04-27 19:07 | 51.17163 | 3.79957 | 10513 ft | 87 kts | 269° |
| 2026-04-27 19:07 | 51.17138 | 3.79007 | 10281 ft | 92 kts | 268° |
| 2026-04-27 19:07 | 51.17107 | 3.77922 | 10343 ft | 104 kts | 269° |
| 2026-04-27 19:08 | 51.17071 | 3.76773 | 10528 ft | 100 kts | 268° |
| 2026-04-27 19:08 | 51.17040 | 3.75691 | 10771 ft | 96 kts | 268° |
| 2026-04-27 19:08 | 51.17013 | 3.74627 | 10977 ft | 97 kts | 268° |
| 2026-04-27 19:08 | 51.16988 | 3.73539 | 11158 ft | 99 kts | 268° |
| 2026-04-27 19:09 | 51.16965 | 3.72429 | 11332 ft | 101 kts | 268° |
| 2026-04-27 19:09 | 51.16943 | 3.71298 | 11507 ft | 103 kts | 268° |
| 2026-04-27 19:09 | 51.16922 | 3.70154 | 11690 ft | 103 kts | 268° |
| 2026-04-27 19:09 | 51.16901 | 3.69021 | 11874 ft | 102 kts | 268° |
| 2026-04-27 19:10 | 51.16881 | 3.67891 | 12060 ft | 101 kts | 268° |
| 2026-04-27 19:10 | 51.16861 | 3.66771 | 12240 ft | 101 kts | 268° |
| 2026-04-27 19:10 | 51.16842 | 3.65694 | 12408 ft | 101 kts | 268° |
| 2026-04-27 19:10 | 51.16829 | 3.64922 | 12531 ft | 101 kts | 268° |
| 2026-04-27 19:11 | 51.16807 | 3.63445 | 12751 ft | 100 kts | 268° |
| 2026-04-27 19:11 | 51.16792 | 3.62319 | 12846 ft | 106 kts | 269° |
| 2026-04-27 19:11 | 51.16774 | 3.61115 | 12858 ft | 113 kts | 268° |
| 2026-04-27 19:11 | 51.16756 | 3.59862 | 12928 ft | 112 kts | 268° |
| 2026-04-27 19:12 | 51.16739 | 3.58651 | 13078 ft | 107 kts | 268° |
| 2026-04-27 19:12 | 51.16724 | 3.57457 | 12990 ft | 114 kts | 269° |
| 2026-04-27 19:12 | 51.16714 | 3.56147 | 12287 ft | 118 kts | 269° |
| 2026-04-27 19:12 | 51.16704 | 3.54918 | 11885 ft | 106 kts | 269° |
| 2026-04-27 19:13 | 51.16692 | 3.53796 | 11555 ft | 98 kts | 269° |
| 2026-04-27 19:13 | 51.16678 | 3.52729 | 11186 ft | 96 kts | 270° |
| 2026-04-27 19:13 | 51.16663 | 3.51660 | 10800 ft | 98 kts | 269° |
| 2026-04-27 19:13 | 51.16645 | 3.50543 | 10357 ft | 103 kts | 269° |
| 2026-04-27 19:14 | 51.16631 | 3.49405 | 10039 ft | 101 kts | 270° |
| 2026-04-27 19:14 | 51.16605 | 3.48347 | 10076 ft | 96 kts | 269° |
| 2026-04-27 19:14 | 51.16574 | 3.47249 | 10050 ft | 102 kts | 269° |
| 2026-04-27 19:14 | 51.16540 | 3.46103 | 10043 ft | 104 kts | 269° |
| 2026-04-27 19:15 | 51.16508 | 3.44959 | 10064 ft | 104 kts | 268° |
| 2026-04-27 19:15 | 51.16480 | 3.43799 | 10073 ft | 105 kts | 269° |
| 2026-04-27 19:15 | 51.16448 | 3.42655 | 10102 ft | 102 kts | 268° |
| 2026-04-27 19:15 | 51.16418 | 3.41521 | 10133 ft | 102 kts | 269° |
| 2026-04-27 19:16 | 51.16388 | 3.40395 | 10157 ft | 101 kts | 269° |
| 2026-04-27 19:16 | 51.16369 | 3.39657 | 10173 ft | 100 kts | 269° |
| 2026-04-27 19:16 | 51.16333 | 3.38161 | 10198 ft | 101 kts | 269° |
| 2026-04-27 19:16 | 51.16306 | 3.37037 | 10212 ft | 102 kts | 269° |
| 2026-04-27 19:17 | 51.16281 | 3.35886 | 10206 ft | 106 kts | 269° |
| 2026-04-27 19:17 | 51.16258 | 3.34722 | 10203 ft | 107 kts | 269° |
| 2026-04-27 19:17 | 51.16234 | 3.33533 | 10231 ft | 107 kts | 269° |
| 2026-04-27 19:17 | 51.16212 | 3.32358 | 10255 ft | 105 kts | 269° |
| 2026-04-27 19:18 | 51.16187 | 3.31196 | 10284 ft | 105 kts | 269° |
| 2026-04-27 19:18 | 51.16159 | 3.30033 | 10308 ft | 105 kts | 269° |
| 2026-04-27 19:18 | 51.16131 | 3.28867 | 10327 ft | 105 kts | 269° |
| 2026-04-27 19:18 | 51.16102 | 3.27706 | 10349 ft | 105 kts | 269° |
| 2026-04-27 19:19 | 51.16074 | 3.26541 | 10370 ft | 105 kts | 269° |
| 2026-04-27 19:19 | 51.16046 | 3.25375 | 10392 ft | 105 kts | 269° |
| 2026-04-27 19:19 | 51.16127 | 3.24203 | 10399 ft | 105 kts | 280° |
| 2026-04-27 19:19 | 51.16227 | 3.23090 | 10485 ft | 100 kts | 277° |
| 2026-04-27 19:20 | 51.16302 | 3.21914 | 10558 ft | 111 kts | 276° |
| 2026-04-27 19:20 | 51.16383 | 3.20706 | 10741 ft | 107 kts | 277° |
| 2026-04-27 19:20 | 51.16462 | 3.19554 | 10975 ft | 102 kts | 277° |
| 2026-04-27 19:20 | 51.16541 | 3.18416 | 11115 ft | 108 kts | 276° |
| 2026-04-27 19:21 | 51.16650 | 3.17121 | 10928 ft | 123 kts | 278° |
| 2026-04-27 19:21 | 51.16738 | 3.15978 | 10673 ft | 103 kts | 277° |
| 2026-04-27 19:21 | 51.16808 | 3.14908 | 10357 ft | 96 kts | 276° |
| 2026-04-27 19:21 | 51.16878 | 3.13809 | 9894 ft | 104 kts | 276° |
| 2026-04-27 19:22 | 51.16949 | 3.12635 | 9391 ft | 108 kts | 277° |
| 2026-04-27 19:22 | 51.17013 | 3.11453 | 8952 ft | 106 kts | 277° |
| 2026-04-27 19:22 | 51.17068 | 3.10364 | 8639 ft | 97 kts | 278° |
| 2026-04-27 19:22 | 51.17097 | 3.09330 | 8360 ft | 93 kts | 277° |
| 2026-04-27 19:23 | 51.17114 | 3.08256 | 7926 ft | 101 kts | 276° |
| 2026-04-27 19:23 | 51.17165 | 3.07234 | 7587 ft | 99 kts | 281° |
| 2026-04-27 19:23 | 51.17228 | 3.06167 | 7250 ft | 99 kts | 281° |
| 2026-04-27 19:23 | 51.17290 | 3.05052 | 6845 ft | 103 kts | 280° |
| 2026-04-27 19:24 | 51.17361 | 3.03892 | 6406 ft | 107 kts | 280° |
| 2026-04-27 19:24 | 51.17429 | 3.02739 | 5976 ft | 108 kts | 279° |
| 2026-04-27 19:24 | 51.17519 | 3.01681 | 5591 ft | 107 kts | 282° |
| 2026-04-27 19:24 | 51.17602 | 3.00502 | 5184 ft | 106 kts | 281° |
| 2026-04-27 19:25 | 51.17728 | 2.99406 | 4741 ft | 105 kts | 300° |
| 2026-04-27 19:25 | 51.18073 | 2.98495 | 4533 ft | 90 kts | 309° |
| 2026-04-27 19:25 | 51.18423 | 2.97650 | 4163 ft | 94 kts | 309° |
| 2026-04-27 19:25 | 51.18819 | 2.96758 | 3699 ft | 100 kts | 309° |
| 2026-04-27 19:26 | 51.19198 | 2.95894 | 3352 ft | 97 kts | 314° |
| 2026-04-27 19:26 | 51.19654 | 2.95032 | 2815 ft | 105 kts | 315° |
| 2026-04-27 19:26 | 51.20171 | 2.94174 | 2148 ft | 116 kts | 325° |
| 2026-04-27 19:26 | 51.20790 | 2.93523 | 1933 ft | 92 kts | 310° |
| 2026-04-27 19:27 | 51.20695 | 2.92474 | 1475 ft | 110 kts | 242° |
| 2026-04-27 19:27 | 51.20454 | 2.91353 | 1047 ft | 101 kts | 289° |
| 2026-04-27 19:27 | 51.20641 | 2.90456 | 1229 ft | 86 kts | 302° |
| 2026-04-27 19:27 | 51.20912 | 2.89521 | 1347 ft | 100 kts | 303° |
| 2026-04-27 19:28 | 51.21212 | 2.88470 | 1509 ft | 105 kts | 285° |
| 2026-04-27 19:28 | 51.21142 | 2.87544 | 1628 ft | 111 kts | 257° |
| 2026-04-27 19:28 | 51.21072 | 2.87175 | 1734 ft | 109 kts | 255° |
| 2026-04-27 19:29 | 51.20807 | 2.85961 | 1745 ft | 124 kts | 252° |
| 2026-04-27 19:29 | 51.20542 | 2.84874 | 1670 ft | 94 kts | 250° |
| 2026-04-27 19:29 | 51.20237 | 2.83978 | 1659 ft | 105 kts | 244° |
| 2026-04-27 19:29 | 51.19862 | 2.82908 | 1683 ft | 120 kts | 242° |
| 2026-04-27 19:30 | 51.19444 | 2.81753 | 1759 ft | 125 kts | 240° |
| 2026-04-27 19:30 | 51.18914 | 2.80922 | 1553 ft | 101 kts | 180° |
| 2026-04-27 19:30 | 51.18724 | 2.80973 | 1458 ft | 98 kts | 157° |
| 2026-04-27 19:31 | 51.18516 | 2.81573 | 1184 ft | 74 kts | 46° |
| 2026-04-27 19:31 | 51.18852 | 2.82170 | 971 ft | 68 kts | 50° |
| 2026-04-27 19:31 | 51.19161 | 2.82739 | 713 ft | 72 kts | 51° |
| 2026-04-27 19:32 | 51.19367 | 2.83448 | 469 ft | 73 kts | 64° |
| 2026-04-27 19:32 | 51.19527 | 2.84235 | 207 ft | 72 kts | 72° |
| 2026-04-27 19:32 | 51.19613 | 2.84944 | 121 ft | 59 kts | 76° |
| 2026-04-27 19:32 | 51.19698 | 2.85539 | 44 ft | 50 kts | 77° |
| 2026-04-27 19:33 | 51.19774 | 2.86031 | 19 ft | 36 kts | 76° |
| 2026-04-27 19:33 | 51.19802 | 2.86217 | 17 ft | 18 kts | 76° |
| 2026-04-27 19:33 | 51.19847 | 2.86516 | 17 ft | 22 kts | 82° |
| 2026-04-27 19:33 | 51.19941 | 2.86662 | 17 ft | 21 kts | 3° |
| 2026-04-27 19:34 | 51.20091 | 2.86691 | 17 ft | 22 kts | 5° |
| 2026-04-27 19:34 | 51.20242 | 2.86744 | 17 ft | 22 kts | 17° |
| 2026-04-27 19:34 | 51.20282 | 2.86743 | 17 ft | 0 kts | 326° |